sensor_id;sensor_type;location;lat;lon;timestamp;pressure;altitude;pressure_sealevel;temperature;humidity
3598;BME280;1813;52.016;8.714;2023-11-19T00:02:38;-16261.94;;;-139.71;95.87
3598;BME280;1813;52.016;8.714;2023-11-19T00:05:12;-16261.94;;;-139.71;95.87
3598;BME280;1813;52.016;8.714;2023-11-19T00:07:45;-16261.94;;;-139.71;95.94
3598;BME280;1813;52.016;8.714;2023-11-19T00:10:20;-16261.94;;;-139.71;96.10
3598;BME280;1813;52.016;8.714;2023-11-19T00:12:53;-16261.94;;;-139.71;95.98
3598;BME280;1813;52.016;8.714;2023-11-19T00:15:30;-16261.94;;;-139.71;96.10
3598;BME280;1813;52.016;8.714;2023-11-19T00:18:04;-16261.94;;;-139.71;96.03
3598;BME280;1813;52.016;8.714;2023-11-19T00:20:37;-16261.94;;;-139.71;96.07
3598;BME280;1813;52.016;8.714;2023-11-19T00:23:10;-16261.94;;;-139.71;96.18
3598;BME280;1813;52.016;8.714;2023-11-19T00:25:44;-16261.94;;;-139.71;96.12
3598;BME280;1813;52.016;8.714;2023-11-19T00:28:18;-16261.94;;;-139.71;96.18
3598;BME280;1813;52.016;8.714;2023-11-19T00:30:54;-16261.94;;;-139.71;95.98
3598;BME280;1813;52.016;8.714;2023-11-19T00:33:28;-16261.94;;;-139.71;96.11
3598;BME280;1813;52.016;8.714;2023-11-19T00:36:01;-16261.94;;;-139.71;96.31
3598;BME280;1813;52.016;8.714;2023-11-19T00:38:35;-16261.94;;;-139.71;96.20
3598;BME280;1813;52.016;8.714;2023-11-19T00:41:09;-16261.94;;;-139.71;96.44
3598;BME280;1813;52.016;8.714;2023-11-19T00:43:42;-16261.94;;;-139.71;96.33
3598;BME280;1813;52.016;8.714;2023-11-19T00:46:18;-16261.94;;;-139.71;96.45
3598;BME280;1813;52.016;8.714;2023-11-19T00:48:52;-16261.94;;;-139.71;96.40
3598;BME280;1813;52.016;8.714;2023-11-19T00:51:25;-16261.94;;;-139.71;96.61
3598;BME280;1813;52.016;8.714;2023-11-19T00:53:59;-16261.94;;;-139.71;96.49
3598;BME280;1813;52.016;8.714;2023-11-19T00:56:32;-16261.94;;;-139.71;96.65
3598;BME280;1813;52.016;8.714;2023-11-19T00:59:06;-16261.94;;;-139.71;96.52
3598;BME280;1813;52.016;8.714;2023-11-19T01:01:42;-16261.94;;;-139.71;96.51
3598;BME280;1813;52.016;8.714;2023-11-19T01:04:15;-16261.94;;;-139.71;96.71
3598;BME280;1813;52.016;8.714;2023-11-19T01:06:49;-16261.94;;;-139.71;96.71
3598;BME280;1813;52.016;8.714;2023-11-19T01:09:22;-16261.94;;;-139.71;96.61
3598;BME280;1813;52.016;8.714;2023-11-19T01:11:57;-16261.94;;;-139.71;96.76
3598;BME280;1813;52.016;8.714;2023-11-19T01:14:31;-16261.94;;;-139.71;96.79
3598;BME280;1813;52.016;8.714;2023-11-19T01:17:07;-16261.94;;;-139.71;96.63
3598;BME280;1813;52.016;8.714;2023-11-19T01:19:41;-16261.94;;;-139.71;96.66
3598;BME280;1813;52.016;8.714;2023-11-19T01:22:15;-16261.94;;;-139.71;96.82
3598;BME280;1813;52.016;8.714;2023-11-19T01:24:49;-16261.94;;;-139.71;96.65
3598;BME280;1813;52.016;8.714;2023-11-19T01:27:24;-16261.94;;;-139.71;96.82
3598;BME280;1813;52.016;8.714;2023-11-19T01:29:58;-16261.94;;;-139.71;96.79
3598;BME280;1813;52.016;8.714;2023-11-19T01:32:35;-16261.94;;;-139.71;96.74
3598;BME280;1813;52.016;8.714;2023-11-19T01:35:08;-16261.94;;;-139.71;96.91
3598;BME280;1813;52.016;8.714;2023-11-19T01:37:42;-16261.94;;;-139.71;97.00
3598;BME280;1813;52.016;8.714;2023-11-19T01:40:20;-16261.94;;;-139.71;96.86
3598;BME280;1813;52.016;8.714;2023-11-19T01:42:53;-16261.94;;;-139.71;96.94
3598;BME280;1813;52.016;8.714;2023-11-19T01:45:28;-16261.94;;;-139.71;96.96
3598;BME280;1813;52.016;8.714;2023-11-19T01:48:05;-16261.94;;;-139.71;97.08
3598;BME280;1813;52.016;8.714;2023-11-19T01:50:42;-16261.94;;;-139.71;97.11
3598;BME280;1813;52.016;8.714;2023-11-19T01:53:15;-16261.94;;;-139.71;97.11
3598;BME280;1813;52.016;8.714;2023-11-19T01:55:49;-16261.94;;;-139.71;97.07
3598;BME280;1813;52.016;8.714;2023-11-19T01:58:23;-16261.94;;;-139.71;97.06
3598;BME280;1813;52.016;8.714;2023-11-19T02:00:57;-16261.94;;;-139.71;97.13
3598;BME280;1813;52.016;8.714;2023-11-19T02:03:34;-16261.94;;;-139.71;97.22
3598;BME280;1813;52.016;8.714;2023-11-19T02:06:08;-16261.94;;;-139.71;97.20
3598;BME280;1813;52.016;8.714;2023-11-19T02:08:43;-16261.94;;;-139.71;97.19
3598;BME280;1813;52.016;8.714;2023-11-19T02:11:17;-16261.94;;;-139.71;97.38
3598;BME280;1813;52.016;8.714;2023-11-19T02:13:50;-16261.94;;;-139.71;97.40
3598;BME280;1813;52.016;8.714;2023-11-19T02:16:24;-16261.94;;;-139.71;97.28
3598;BME280;1813;52.016;8.714;2023-11-19T02:19:01;-16261.94;;;-139.71;97.39
3598;BME280;1813;52.016;8.714;2023-11-19T02:21:36;-16261.94;;;-139.71;97.41
3598;BME280;1813;52.016;8.714;2023-11-19T02:24:12;-16261.94;;;-139.71;97.43
3598;BME280;1813;52.016;8.714;2023-11-19T02:26:52;-16261.94;;;-139.71;97.69
3598;BME280;1813;52.016;8.714;2023-11-19T02:29:33;-16261.94;;;-139.71;97.71
3598;BME280;1813;52.016;8.714;2023-11-19T02:32:07;-16261.94;;;-139.71;97.69
3598;BME280;1813;52.016;8.714;2023-11-19T02:34:44;-16261.94;;;-139.71;97.67
3598;BME280;1813;52.016;8.714;2023-11-19T02:37:17;-16261.94;;;-139.71;97.70
3598;BME280;1813;52.016;8.714;2023-11-19T02:39:51;-16261.94;;;-139.71;97.86
3598;BME280;1813;52.016;8.714;2023-11-19T02:42:24;-16261.94;;;-139.71;98.00
3598;BME280;1813;52.016;8.714;2023-11-19T02:45:01;-16261.94;;;-139.71;98.20
3598;BME280;1813;52.016;8.714;2023-11-19T02:47:36;-16261.94;;;-139.71;98.22
3598;BME280;1813;52.016;8.714;2023-11-19T02:50:10;-16261.94;;;-139.71;98.39
3598;BME280;1813;52.016;8.714;2023-11-19T02:52:45;-16261.94;;;-139.71;98.21
3598;BME280;1813;52.016;8.714;2023-11-19T02:55:21;-16261.94;;;-139.71;98.13
3598;BME280;1813;52.016;8.714;2023-11-19T02:57:55;-16261.94;;;-139.71;98.31
3598;BME280;1813;52.016;8.714;2023-11-19T03:00:32;-16261.94;;;-139.71;98.13
3598;BME280;1813;52.016;8.714;2023-11-19T03:03:08;-16261.94;;;-139.71;98.05
3598;BME280;1813;52.016;8.714;2023-11-19T03:05:50;-16261.94;;;-139.71;97.94
3598;BME280;1813;52.016;8.714;2023-11-19T03:08:24;-16261.94;;;-139.71;97.95
3598;BME280;1813;52.016;8.714;2023-11-19T03:10:57;-16261.94;;;-139.71;97.90
3598;BME280;1813;52.016;8.714;2023-11-19T03:13:31;-16261.94;;;-139.71;97.94
3598;BME280;1813;52.016;8.714;2023-11-19T03:16:08;-16261.94;;;-139.71;98.00
3598;BME280;1813;52.016;8.714;2023-11-19T03:18:42;-16261.94;;;-139.71;97.75
3598;BME280;1813;52.016;8.714;2023-11-19T03:21:15;-16261.94;;;-139.71;97.69
3598;BME280;1813;52.016;8.714;2023-11-19T03:23:49;-16261.94;;;-139.71;97.89
3598;BME280;1813;52.016;8.714;2023-11-19T03:26:22;-16261.94;;;-139.71;97.88
3598;BME280;1813;52.016;8.714;2023-11-19T03:28:56;-16261.94;;;-139.71;97.93
3598;BME280;1813;52.016;8.714;2023-11-19T03:31:32;-16261.94;;;-139.71;98.00
3598;BME280;1813;52.016;8.714;2023-11-19T03:34:06;-16261.94;;;-139.71;98.03
3598;BME280;1813;52.016;8.714;2023-11-19T03:36:39;-16261.94;;;-139.71;97.81
3598;BME280;1813;52.016;8.714;2023-11-19T03:39:15;-16261.94;;;-139.71;98.03
3598;BME280;1813;52.016;8.714;2023-11-19T03:41:48;-16261.94;;;-139.71;98.00
3598;BME280;1813;52.016;8.714;2023-11-19T03:44:19;-16261.94;;;-139.71;97.78
3598;BME280;1813;52.016;8.714;2023-11-19T03:46:55;-16261.94;;;-139.71;97.93
3598;BME280;1813;52.016;8.714;2023-11-19T03:49:29;-16261.94;;;-139.71;97.80
3598;BME280;1813;52.016;8.714;2023-11-19T03:52:03;-16261.94;;;-139.71;97.81
3598;BME280;1813;52.016;8.714;2023-11-19T03:54:37;-16261.94;;;-139.71;97.89
3598;BME280;1813;52.016;8.714;2023-11-19T03:57:10;-16261.94;;;-139.71;97.95
3598;BME280;1813;52.016;8.714;2023-11-19T03:59:44;-16261.94;;;-139.71;97.78
3598;BME280;1813;52.016;8.714;2023-11-19T04:02:20;-16261.94;;;-139.71;97.67
3598;BME280;1813;52.016;8.714;2023-11-19T04:04:54;-16261.94;;;-139.71;97.97
3598;BME280;1813;52.016;8.714;2023-11-19T04:07:29;-16261.94;;;-139.71;97.77
3598;BME280;1813;52.016;8.714;2023-11-19T04:10:03;-16261.94;;;-139.71;97.93
3598;BME280;1813;52.016;8.714;2023-11-19T04:12:37;-16261.94;;;-139.71;97.76
3598;BME280;1813;52.016;8.714;2023-11-19T04:15:11;-16261.94;;;-139.71;97.81
3598;BME280;1813;52.016;8.714;2023-11-19T04:17:47;-16261.94;;;-139.71;97.60
3598;BME280;1813;52.016;8.714;2023-11-19T04:20:20;-16261.94;;;-139.71;97.71
3598;BME280;1813;52.016;8.714;2023-11-19T04:22:54;-16261.94;;;-139.71;97.67
3598;BME280;1813;52.016;8.714;2023-11-19T04:25:27;-16261.94;;;-139.71;97.67
3598;BME280;1813;52.016;8.714;2023-11-19T04:28:01;-16261.94;;;-139.71;97.61
3598;BME280;1813;52.016;8.714;2023-11-19T04:30:35;-16261.94;;;-139.71;97.46
3598;BME280;1813;52.016;8.714;2023-11-19T04:33:11;-16261.94;;;-139.71;97.58
3598;BME280;1813;52.016;8.714;2023-11-19T04:35:45;-16261.94;;;-139.71;97.23
3598;BME280;1813;52.016;8.714;2023-11-19T04:38:18;-16261.94;;;-139.71;97.31
3598;BME280;1813;52.016;8.714;2023-11-19T04:40:52;-16261.94;;;-139.71;97.24
3598;BME280;1813;52.016;8.714;2023-11-19T04:43:27;-16261.94;;;-139.71;97.04
3598;BME280;1813;52.016;8.714;2023-11-19T04:46:03;-16261.94;;;-139.71;96.91
3598;BME280;1813;52.016;8.714;2023-11-19T04:48:39;-16261.94;;;-139.71;96.66
3598;BME280;1813;52.016;8.714;2023-11-19T04:51:13;-16261.94;;;-139.71;96.54
3598;BME280;1813;52.016;8.714;2023-11-19T04:53:46;-16261.94;;;-139.71;96.31
3598;BME280;1813;52.016;8.714;2023-11-19T04:56:20;-16261.94;;;-139.71;96.15
3598;BME280;1813;52.016;8.714;2023-11-19T04:58:53;-16261.94;;;-139.71;95.74
3598;BME280;1813;52.016;8.714;2023-11-19T05:01:26;-16261.94;;;-139.71;95.65
3598;BME280;1813;52.016;8.714;2023-11-19T05:04:02;-16261.94;;;-139.71;95.09
3598;BME280;1813;52.016;8.714;2023-11-19T05:06:36;-16261.94;;;-139.71;94.64
3598;BME280;1813;52.016;8.714;2023-11-19T05:09:10;-16261.94;;;-139.71;94.20
3598;BME280;1813;52.016;8.714;2023-11-19T05:11:44;-16261.94;;;-139.71;94.02
3598;BME280;1813;52.016;8.714;2023-11-19T05:14:17;-16261.94;;;-139.71;93.59
3598;BME280;1813;52.016;8.714;2023-11-19T05:16:52;-16261.94;;;-139.71;93.39
3598;BME280;1813;52.016;8.714;2023-11-19T05:19:28;-16261.94;;;-139.71;93.26
3598;BME280;1813;52.016;8.714;2023-11-19T05:22:01;-16261.94;;;-139.71;92.93
3598;BME280;1813;52.016;8.714;2023-11-19T05:24:35;-16261.94;;;-139.71;92.79
3598;BME280;1813;52.016;8.714;2023-11-19T05:27:10;-16261.94;;;-139.71;92.51
3598;BME280;1813;52.016;8.714;2023-11-19T05:29:44;-16261.94;;;-139.71;92.53
3598;BME280;1813;52.016;8.714;2023-11-19T05:32:17;-16261.94;;;-139.71;92.17
3598;BME280;1813;52.016;8.714;2023-11-19T05:34:54;-16261.94;;;-139.71;92.02
3598;BME280;1813;52.016;8.714;2023-11-19T05:37:27;-16261.94;;;-139.71;91.72
3598;BME280;1813;52.016;8.714;2023-11-19T05:40:00;-16261.94;;;-139.71;91.10
3598;BME280;1813;52.016;8.714;2023-11-19T05:42:37;-16261.94;;;-139.71;90.56
3598;BME280;1813;52.016;8.714;2023-11-19T05:45:11;-16261.94;;;-139.71;90.34
3598;BME280;1813;52.016;8.714;2023-11-19T05:47:45;-16261.94;;;-139.71;90.05
3598;BME280;1813;52.016;8.714;2023-11-19T05:50:21;-16261.94;;;-139.71;89.85
3598;BME280;1813;52.016;8.714;2023-11-19T05:52:54;-16261.94;;;-139.71;89.72
3598;BME280;1813;52.016;8.714;2023-11-19T05:55:28;-16261.94;;;-139.71;89.25
3598;BME280;1813;52.016;8.714;2023-11-19T05:58:01;-16261.94;;;-139.71;88.95
3598;BME280;1813;52.016;8.714;2023-11-19T06:00:37;-16261.94;;;-139.71;88.53
3598;BME280;1813;52.016;8.714;2023-11-19T06:03:10;-16261.94;;;-139.71;88.14
3598;BME280;1813;52.016;8.714;2023-11-19T06:05:47;-16261.94;;;-139.71;88.22
3598;BME280;1813;52.016;8.714;2023-11-19T06:08:21;-16261.94;;;-139.71;88.10
3598;BME280;1813;52.016;8.714;2023-11-19T06:10:54;-16261.94;;;-139.71;88.05
3598;BME280;1813;52.016;8.714;2023-11-19T06:13:27;-16261.94;;;-139.71;88.14
3598;BME280;1813;52.016;8.714;2023-11-19T06:16:01;-16261.94;;;-139.71;88.35
3598;BME280;1813;52.016;8.714;2023-11-19T06:18:36;-16261.94;;;-139.71;88.27
3598;BME280;1813;52.016;8.714;2023-11-19T06:21:12;-16261.94;;;-139.71;88.49
3598;BME280;1813;52.016;8.714;2023-11-19T06:23:46;-16261.94;;;-139.71;88.25
3598;BME280;1813;52.016;8.714;2023-11-19T06:26:22;-16261.94;;;-139.71;87.79
3598;BME280;1813;52.016;8.714;2023-11-19T06:28:55;-16261.94;;;-139.71;87.44
3598;BME280;1813;52.016;8.714;2023-11-19T06:31:29;-16261.94;;;-139.71;87.26
3598;BME280;1813;52.016;8.714;2023-11-19T06:34:02;-16261.94;;;-139.71;87.16
3598;BME280;1813;52.016;8.714;2023-11-19T06:36:38;-16261.94;;;-139.71;86.81
3598;BME280;1813;52.016;8.714;2023-11-19T06:39:14;-16261.94;;;-139.71;86.46
3598;BME280;1813;52.016;8.714;2023-11-19T06:41:48;-16261.94;;;-139.71;86.42
3598;BME280;1813;52.016;8.714;2023-11-19T06:44:22;-16261.94;;;-139.71;86.22
3598;BME280;1813;52.016;8.714;2023-11-19T06:46:55;-16261.94;;;-139.71;85.93
3598;BME280;1813;52.016;8.714;2023-11-19T06:49:28;-16261.94;;;-139.71;85.43
3598;BME280;1813;52.016;8.714;2023-11-19T06:52:05;-16261.94;;;-139.71;85.32
3598;BME280;1813;52.016;8.714;2023-11-19T06:54:39;-16261.94;;;-139.71;85.19
3598;BME280;1813;52.016;8.714;2023-11-19T06:57:12;-16261.94;;;-139.71;85.01
3598;BME280;1813;52.016;8.714;2023-11-19T06:59:46;-16261.94;;;-139.71;84.75
3598;BME280;1813;52.016;8.714;2023-11-19T07:02:19;-16261.94;;;-139.71;84.32
3598;BME280;1813;52.016;8.714;2023-11-19T07:04:53;-16261.94;;;-139.71;83.92
3598;BME280;1813;52.016;8.714;2023-11-19T07:07:29;-16261.94;;;-139.71;83.64
3598;BME280;1813;52.016;8.714;2023-11-19T07:10:04;-16261.94;;;-139.71;83.46
3598;BME280;1813;52.016;8.714;2023-11-19T07:12:39;-16261.94;;;-139.71;83.00
3598;BME280;1813;52.016;8.714;2023-11-19T07:15:13;-16261.94;;;-139.71;82.50
3598;BME280;1813;52.016;8.714;2023-11-19T07:17:48;-16261.94;;;-139.71;82.07
3598;BME280;1813;52.016;8.714;2023-11-19T07:20:21;-16261.94;;;-139.71;81.89
3598;BME280;1813;52.016;8.714;2023-11-19T07:22:57;-16261.94;;;-139.71;81.87
3598;BME280;1813;52.016;8.714;2023-11-19T07:25:30;-16261.94;;;-139.71;81.75
3598;BME280;1813;52.016;8.714;2023-11-19T07:28:05;-16261.94;;;-139.71;81.74
3598;BME280;1813;52.016;8.714;2023-11-19T07:30:40;-16261.94;;;-139.71;81.47
3598;BME280;1813;52.016;8.714;2023-11-19T07:33:13;-16261.94;;;-139.71;81.54
3598;BME280;1813;52.016;8.714;2023-11-19T07:35:47;-16261.94;;;-139.71;81.40
3598;BME280;1813;52.016;8.714;2023-11-19T07:38:24;-16261.94;;;-139.71;81.18
3598;BME280;1813;52.016;8.714;2023-11-19T07:40:57;-16261.94;;;-139.71;80.91
3598;BME280;1813;52.016;8.714;2023-11-19T07:43:31;-16261.94;;;-139.71;80.94
3598;BME280;1813;52.016;8.714;2023-11-19T07:46:05;-16261.94;;;-139.71;80.74
3598;BME280;1813;52.016;8.714;2023-11-19T07:48:39;-16261.94;;;-139.71;80.75
3598;BME280;1813;52.016;8.714;2023-11-19T07:51:13;-16261.94;;;-139.71;80.64
3598;BME280;1813;52.016;8.714;2023-11-19T07:53:49;-16261.94;;;-139.71;80.37
3598;BME280;1813;52.016;8.714;2023-11-19T07:56:22;-16261.94;;;-139.71;80.52
3598;BME280;1813;52.016;8.714;2023-11-19T07:58:56;-16261.94;;;-139.71;80.20
3598;BME280;1813;52.016;8.714;2023-11-19T08:01:29;-16261.94;;;-139.71;80.40
3598;BME280;1813;52.016;8.714;2023-11-19T08:04:03;-16261.94;;;-139.71;80.22
3598;BME280;1813;52.016;8.714;2023-11-19T08:06:36;-16261.94;;;-139.71;80.18
3598;BME280;1813;52.016;8.714;2023-11-19T08:09:12;-16261.94;;;-139.71;80.00
3598;BME280;1813;52.016;8.714;2023-11-19T08:11:46;-16261.94;;;-139.71;79.97
3598;BME280;1813;52.016;8.714;2023-11-19T08:14:20;-16261.94;;;-139.71;80.13
3598;BME280;1813;52.016;8.714;2023-11-19T08:16:54;-16261.94;;;-139.71;80.18
3598;BME280;1813;52.016;8.714;2023-11-19T08:19:27;-16261.94;;;-139.71;79.85
3598;BME280;1813;52.016;8.714;2023-11-19T08:22:01;-16261.94;;;-139.71;80.00
3598;BME280;1813;52.016;8.714;2023-11-19T08:24:37;-16261.94;;;-139.71;79.87
3598;BME280;1813;52.016;8.714;2023-11-19T08:27:11;-16261.94;;;-139.71;79.80
3598;BME280;1813;52.016;8.714;2023-11-19T08:29:44;-16261.94;;;-139.71;79.50
3598;BME280;1813;52.016;8.714;2023-11-19T08:32:18;-16261.94;;;-139.71;79.39
3598;BME280;1813;52.016;8.714;2023-11-19T08:34:51;-16261.94;;;-139.71;79.10
3598;BME280;1813;52.016;8.714;2023-11-19T08:37:25;-16261.94;;;-139.71;79.08
3598;BME280;1813;52.016;8.714;2023-11-19T08:40:01;-16261.94;;;-139.71;78.99
3598;BME280;1813;52.016;8.714;2023-11-19T08:42:35;-16261.94;;;-139.71;78.97
3598;BME280;1813;52.016;8.714;2023-11-19T08:45:10;-16261.94;;;-139.71;78.99
3598;BME280;1813;52.016;8.714;2023-11-19T08:47:43;-16261.94;;;-139.71;78.91
3598;BME280;1813;52.016;8.714;2023-11-19T08:50:17;-16261.94;;;-139.71;78.90
3598;BME280;1813;52.016;8.714;2023-11-19T08:52:50;-16261.94;;;-139.71;78.76
3598;BME280;1813;52.016;8.714;2023-11-19T08:55:26;-16261.94;;;-139.71;78.73
3598;BME280;1813;52.016;8.714;2023-11-19T08:57:59;-16261.94;;;-139.71;78.94
3598;BME280;1813;52.016;8.714;2023-11-19T09:00:33;-16261.94;;;-139.71;79.31
3598;BME280;1813;52.016;8.714;2023-11-19T09:03:06;-16261.94;;;-139.71;79.12
3598;BME280;1813;52.016;8.714;2023-11-19T09:05:40;-16261.94;;;-139.71;79.16
3598;BME280;1813;52.016;8.714;2023-11-19T09:08:13;-16261.94;;;-139.71;79.16
3598;BME280;1813;52.016;8.714;2023-11-19T09:10:49;-16261.94;;;-139.71;78.64
3598;BME280;1813;52.016;8.714;2023-11-19T09:13:23;-16261.94;;;-139.71;78.64
3598;BME280;1813;52.016;8.714;2023-11-19T09:15:56;-16261.94;;;-139.71;78.68
3598;BME280;1813;52.016;8.714;2023-11-19T09:18:33;-16261.94;;;-139.71;78.75
3598;BME280;1813;52.016;8.714;2023-11-19T09:21:07;-16261.94;;;-139.71;78.88
3598;BME280;1813;52.016;8.714;2023-11-19T09:23:40;-16261.94;;;-139.71;79.11
3598;BME280;1813;52.016;8.714;2023-11-19T09:26:17;-16261.94;;;-139.71;79.43
3598;BME280;1813;52.016;8.714;2023-11-19T09:28:51;-16261.94;;;-139.71;79.37
3598;BME280;1813;52.016;8.714;2023-11-19T09:31:24;-16261.94;;;-139.71;79.53
3598;BME280;1813;52.016;8.714;2023-11-19T09:33:58;-16261.94;;;-139.71;79.70
3598;BME280;1813;52.016;8.714;2023-11-19T09:36:31;-16261.94;;;-139.71;79.60
3598;BME280;1813;52.016;8.714;2023-11-19T09:39:05;-16261.94;;;-139.71;79.58
3598;BME280;1813;52.016;8.714;2023-11-19T09:41:42;-16261.94;;;-139.71;79.51
3598;BME280;1813;52.016;8.714;2023-11-19T09:44:15;-16261.94;;;-139.71;79.55
3598;BME280;1813;52.016;8.714;2023-11-19T09:46:49;-16261.94;;;-139.71;79.29
3598;BME280;1813;52.016;8.714;2023-11-19T09:49:24;-16261.94;;;-139.71;79.10
3598;BME280;1813;52.016;8.714;2023-11-19T09:51:59;-16261.94;;;-139.71;79.42
3598;BME280;1813;52.016;8.714;2023-11-19T09:54:33;-16261.94;;;-139.71;80.10
3598;BME280;1813;52.016;8.714;2023-11-19T09:57:09;-16261.94;;;-139.71;81.27
3598;BME280;1813;52.016;8.714;2023-11-19T09:59:46;-16261.94;;;-139.71;80.76
3598;BME280;1813;52.016;8.714;2023-11-19T10:02:20;-16261.94;;;-139.71;81.07
3598;BME280;1813;52.016;8.714;2023-11-19T10:04:54;-16261.94;;;-139.71;80.57
3598;BME280;1813;52.016;8.714;2023-11-19T10:07:28;-16261.94;;;-139.71;79.84
3598;BME280;1813;52.016;8.714;2023-11-19T10:10:04;-16261.94;;;-139.71;79.36
3598;BME280;1813;52.016;8.714;2023-11-19T10:12:41;-16261.94;;;-139.71;78.79
3598;BME280;1813;52.016;8.714;2023-11-19T10:15:20;-16261.94;;;-139.71;79.41
3598;BME280;1813;52.016;8.714;2023-11-19T10:17:55;-16261.94;;;-139.71;78.72
3598;BME280;1813;52.016;8.714;2023-11-19T10:20:28;-16261.94;;;-139.71;78.29
3598;BME280;1813;52.016;8.714;2023-11-19T10:23:02;-16261.94;;;-139.71;77.90
3598;BME280;1813;52.016;8.714;2023-11-19T10:25:36;-16261.94;;;-139.71;77.91
3598;BME280;1813;52.016;8.714;2023-11-19T10:28:15;-16261.94;;;-139.71;77.03
3598;BME280;1813;52.016;8.714;2023-11-19T10:30:49;-16261.94;;;-139.71;76.75
3598;BME280;1813;52.016;8.714;2023-11-19T10:33:29;-16261.94;;;-139.71;76.48
3598;BME280;1813;52.016;8.714;2023-11-19T10:36:03;-16261.94;;;-139.71;75.90
3598;BME280;1813;52.016;8.714;2023-11-19T10:38:38;-16261.94;;;-139.71;75.67
3598;BME280;1813;52.016;8.714;2023-11-19T10:41:26;-16261.94;;;-139.71;75.76
3598;BME280;1813;52.016;8.714;2023-11-19T10:44:02;-16261.94;;;-139.71;74.74
3598;BME280;1813;52.016;8.714;2023-11-19T10:46:37;-16261.94;;;-139.71;73.65
3598;BME280;1813;52.016;8.714;2023-11-19T10:49:11;-16261.94;;;-139.71;72.28
3598;BME280;1813;52.016;8.714;2023-11-19T10:51:45;-16261.94;;;-139.71;72.04
3598;BME280;1813;52.016;8.714;2023-11-19T10:54:19;-16261.94;;;-139.71;71.82
3598;BME280;1813;52.016;8.714;2023-11-19T10:56:55;-16261.94;;;-139.71;72.50
3598;BME280;1813;52.016;8.714;2023-11-19T10:59:35;-16261.94;;;-139.71;73.04
3598;BME280;1813;52.016;8.714;2023-11-19T11:02:14;-16261.94;;;-139.71;73.43
3598;BME280;1813;52.016;8.714;2023-11-19T11:04:49;-16261.94;;;-139.71;72.94
3598;BME280;1813;52.016;8.714;2023-11-19T11:07:24;-16261.94;;;-139.71;72.94
3598;BME280;1813;52.016;8.714;2023-11-19T11:09:59;-16261.94;;;-139.71;73.26
3598;BME280;1813;52.016;8.714;2023-11-19T11:12:36;-16261.94;;;-139.71;73.30
3598;BME280;1813;52.016;8.714;2023-11-19T11:15:14;-16261.94;;;-139.71;73.14
3598;BME280;1813;52.016;8.714;2023-11-19T11:17:49;-16261.94;;;-139.71;72.99
3598;BME280;1813;52.016;8.714;2023-11-19T11:20:23;-16261.94;;;-139.71;73.16
3598;BME280;1813;52.016;8.714;2023-11-19T11:23:12;-16261.94;;;-139.71;72.82
3598;BME280;1813;52.016;8.714;2023-11-19T11:25:59;-16261.94;;;-139.71;72.75
3598;BME280;1813;52.016;8.714;2023-11-19T11:28:42;-16261.94;;;-139.71;73.51
3598;BME280;1813;52.016;8.714;2023-11-19T11:31:29;-16261.94;;;-139.71;74.05
3598;BME280;1813;52.016;8.714;2023-11-19T11:34:39;-16261.94;;;-139.71;75.22
3598;BME280;1813;52.016;8.714;2023-11-19T11:37:18;-16261.94;;;-139.71;77.00
3598;BME280;1813;52.016;8.714;2023-11-19T11:39:57;-16261.94;;;-139.71;78.55
3598;BME280;1813;52.016;8.714;2023-11-19T11:42:34;-16261.94;;;-139.71;79.53
3598;BME280;1813;52.016;8.714;2023-11-19T11:45:09;-16261.94;;;-139.71;80.71
3598;BME280;1813;52.016;8.714;2023-11-19T11:50:51;-16261.94;;;-139.71;80.83
3598;BME280;1813;52.016;8.714;2023-11-19T11:53:25;-16261.94;;;-139.71;80.80
3598;BME280;1813;52.016;8.714;2023-11-19T11:55:59;-16261.94;;;-139.71;80.05
3598;BME280;1813;52.016;8.714;2023-11-19T11:58:35;-16261.94;;;-139.71;79.37
3598;BME280;1813;52.016;8.714;2023-11-19T12:01:14;-16261.94;;;-139.71;79.23
3598;BME280;1813;52.016;8.714;2023-11-19T12:03:51;-16261.94;;;-139.71;79.00
3598;BME280;1813;52.016;8.714;2023-11-19T12:06:27;-16261.94;;;-139.71;79.39
3598;BME280;1813;52.016;8.714;2023-11-19T12:09:01;-16261.94;;;-139.71;80.31
3598;BME280;1813;52.016;8.714;2023-11-19T12:11:37;-16261.94;;;-139.71;81.30
3598;BME280;1813;52.016;8.714;2023-11-19T12:14:11;-16261.94;;;-139.71;82.09
3598;BME280;1813;52.016;8.714;2023-11-19T12:16:44;-16261.94;;;-139.71;82.92
3598;BME280;1813;52.016;8.714;2023-11-19T12:19:18;-16261.94;;;-139.71;83.73
3598;BME280;1813;52.016;8.714;2023-11-19T12:21:55;-16261.94;;;-139.71;84.09
3598;BME280;1813;52.016;8.714;2023-11-19T12:24:29;-16261.94;;;-139.71;84.88
3598;BME280;1813;52.016;8.714;2023-11-19T12:27:04;-16261.94;;;-139.71;84.67
3598;BME280;1813;52.016;8.714;2023-11-19T12:29:41;-16261.94;;;-139.71;84.02
3598;BME280;1813;52.016;8.714;2023-11-19T12:32:15;-16261.94;;;-139.71;83.54
3598;BME280;1813;52.016;8.714;2023-11-19T12:34:48;-16261.94;;;-139.71;83.17
3598;BME280;1813;52.016;8.714;2023-11-19T12:37:24;-16261.94;;;-139.71;82.55
3598;BME280;1813;52.016;8.714;2023-11-19T12:39:59;-16261.94;;;-139.71;81.76
3598;BME280;1813;52.016;8.714;2023-11-19T12:42:35;-16261.94;;;-139.71;80.84
3598;BME280;1813;52.016;8.714;2023-11-19T12:45:09;-16261.94;;;-139.71;79.90
3598;BME280;1813;52.016;8.714;2023-11-19T12:47:44;-16261.94;;;-139.71;79.38
3598;BME280;1813;52.016;8.714;2023-11-19T12:50:18;-16261.94;;;-139.71;78.81
3598;BME280;1813;52.016;8.714;2023-11-19T12:53:00;-16261.94;;;-139.71;77.76
3598;BME280;1813;52.016;8.714;2023-11-19T12:55:33;-16261.94;;;-139.71;77.14
3598;BME280;1813;52.016;8.714;2023-11-19T12:58:07;-16261.94;;;-139.71;77.10
3598;BME280;1813;52.016;8.714;2023-11-19T13:00:40;-16261.94;;;-139.71;76.60
3598;BME280;1813;52.016;8.714;2023-11-19T13:03:29;-16261.94;;;-139.71;76.23
3598;BME280;1813;52.016;8.714;2023-11-19T13:06:04;-16261.94;;;-139.71;76.35
3598;BME280;1813;52.016;8.714;2023-11-19T13:08:43;-16261.94;;;-139.71;76.37
3598;BME280;1813;52.016;8.714;2023-11-19T13:11:30;-16261.94;;;-139.71;76.42
3598;BME280;1813;52.016;8.714;2023-11-19T13:14:04;-16261.94;;;-139.71;76.35
3598;BME280;1813;52.016;8.714;2023-11-19T13:16:39;-16261.94;;;-139.71;76.15
3598;BME280;1813;52.016;8.714;2023-11-19T13:19:12;-16261.94;;;-139.71;75.97
3598;BME280;1813;52.016;8.714;2023-11-19T13:21:46;-16261.94;;;-139.71;75.63
3598;BME280;1813;52.016;8.714;2023-11-19T13:24:22;-16261.94;;;-139.71;74.99
3598;BME280;1813;52.016;8.714;2023-11-19T13:26:56;-16261.94;;;-139.71;75.03
3598;BME280;1813;52.016;8.714;2023-11-19T13:29:29;-16261.94;;;-139.71;75.26
3598;BME280;1813;52.016;8.714;2023-11-19T13:32:03;-16261.94;;;-139.71;75.53
3598;BME280;1813;52.016;8.714;2023-11-19T13:34:36;-16261.94;;;-139.71;74.94